createdAt,value
2018-01-11T00:00:12.496Z,1.83
2018-01-11T00:02:40.028Z,1.86
2018-01-11T00:05:07.571Z,2.06
2018-01-11T00:07:35.097Z,2.19
2018-01-11T00:10:02.641Z,2.15
2018-01-11T00:12:30.167Z,2.21
2018-01-11T00:14:57.696Z,2.20
2018-01-11T00:17:25.197Z,2.20
2018-01-11T00:19:52.720Z,2.13
2018-01-11T00:22:20.236Z,2.24
2018-01-11T00:24:47.736Z,2.14
2018-01-11T00:27:15.270Z,2.05
2018-01-11T00:29:42.806Z,1.94
2018-01-11T00:32:10.334Z,1.97
2018-01-11T00:34:37.849Z,1.89
2018-01-11T00:37:05.362Z,1.96
2018-01-11T00:39:32.881Z,2.06
2018-01-11T00:42:00.398Z,2.14
2018-01-11T00:44:27.957Z,2.17
2018-01-11T00:46:55.463Z,2.18
2018-01-11T00:49:22.998Z,2.04
2018-01-11T00:51:50.545Z,1.97
2018-01-11T00:54:18.051Z,2.03
2018-01-11T00:56:45.605Z,2.09
2018-01-11T00:59:13.142Z,2.06
2018-01-11T01:01:40.686Z,2.09
2018-01-11T01:04:08.197Z,1.93
2018-01-11T01:06:35.971Z,2.03
2018-01-11T01:09:03.525Z,2.03
2018-01-11T01:11:31.042Z,1.99
2018-01-11T01:13:58.570Z,1.77
2018-01-11T01:16:26.115Z,1.67
2018-01-11T01:18:53.776Z,1.64
2018-01-11T01:21:21.290Z,1.38
2018-01-11T01:23:48.837Z,1.23
2018-01-11T01:26:16.336Z,1.17
2018-01-11T01:28:43.867Z,1.09
2018-01-11T01:31:11.430Z,1.03
2018-01-11T01:33:38.963Z,0.93
2018-01-11T01:36:06.472Z,0.83
2018-01-11T01:38:34.146Z,0.69
2018-01-11T01:41:01.662Z,0.66
2018-01-11T01:43:29.196Z,0.62
2018-01-11T01:45:56.717Z,0.59
2018-01-11T01:48:36.092Z,0.59
2018-01-11T01:51:03.722Z,0.53
2018-01-11T01:53:31.270Z,0.59
2018-01-11T01:55:58.781Z,0.58
2018-01-11T01:58:26.357Z,0.46
2018-01-11T02:00:53.878Z,0.31
2018-01-11T02:03:21.435Z,0.19
2018-01-11T02:05:48.940Z,0.15
2018-01-11T02:08:16.452Z,0.18
2018-01-11T02:10:43.951Z,0.11
2018-01-11T02:13:11.466Z,0.07
2018-01-11T02:15:39.006Z,0.05
2018-01-11T02:18:06.522Z,0.02
2018-01-11T02:20:34.037Z,0.19
2018-01-11T02:23:01.555Z,0.10
2018-01-11T02:25:29.140Z,0.05
2018-01-11T02:27:56.666Z,-0.04
2018-01-11T02:30:24.187Z,0.17
2018-01-11T02:32:51.712Z,0.00
2018-01-11T02:35:19.382Z,0.10
2018-01-11T02:37:46.886Z,0.05
2018-01-11T02:40:14.406Z,-0.01
2018-01-11T02:42:41.931Z,-0.14
2018-01-11T02:45:09.456Z,-0.19
2018-01-11T02:47:37.005Z,-0.37
2018-01-11T02:50:04.550Z,-0.56
2018-01-11T02:52:32.065Z,-0.37
2018-01-11T02:54:59.672Z,-0.56
2018-01-11T02:57:27.224Z,-0.66
2018-01-11T02:59:54.751Z,-0.65
2018-01-11T03:02:22.292Z,-0.64
2018-01-11T03:04:49.860Z,-0.70
2018-01-11T03:07:17.402Z,-0.61
2018-01-11T03:09:45.006Z,-0.63
2018-01-11T03:12:12.550Z,-0.61
2018-01-11T03:14:40.081Z,-0.67
2018-01-11T03:17:07.611Z,-0.70
2018-01-11T03:19:35.140Z,-0.75
2018-01-11T03:22:02.657Z,-0.81
2018-01-11T03:24:30.175Z,-0.83
2018-01-11T03:26:57.822Z,-0.60
2018-01-11T03:29:25.335Z,-0.64
2018-01-11T03:31:52.841Z,-0.57
2018-01-11T03:34:20.357Z,-0.73
2018-01-11T03:36:47.861Z,-0.86
2018-01-11T03:39:15.366Z,-0.83
2018-01-11T03:41:42.945Z,-0.85
2018-01-11T03:44:10.480Z,-0.91
2018-01-11T03:46:38.017Z,-0.91
2018-01-11T03:49:05.602Z,-0.99
2018-01-11T03:51:33.155Z,-0.97
2018-01-11T03:54:00.696Z,-0.98
2018-01-11T03:56:28.243Z,-1.05
2018-01-11T03:58:55.790Z,-1.19
2018-01-11T04:01:23.391Z,-1.20
2018-01-11T04:03:50.922Z,-1.13
2018-01-11T04:06:18.440Z,-1.11
2018-01-11T04:08:46.002Z,-1.06
2018-01-11T04:11:13.556Z,-1.12
2018-01-11T04:13:41.073Z,-1.08
2018-01-11T04:16:08.612Z,-1.08
2018-01-11T04:18:36.135Z,-0.98
2018-01-11T04:21:03.671Z,-1.01
2018-01-11T04:23:31.202Z,-0.99
2018-01-11T04:25:58.721Z,-0.98
2018-01-11T04:28:26.260Z,-1.14
2018-01-11T04:30:53.792Z,-1.18
2018-01-11T04:33:21.347Z,-1.17
2018-01-11T04:35:48.871Z,-1.23
2018-01-11T04:38:16.373Z,-1.13
2018-01-11T04:40:43.893Z,-1.21
2018-01-11T04:43:11.447Z,-1.29
2018-01-11T04:45:38.963Z,-1.21
2018-01-11T04:48:06.485Z,-1.21
2018-01-11T04:50:33.998Z,-1.28
2018-01-11T04:53:01.502Z,-1.41
2018-01-11T04:55:29.105Z,-1.28
2018-01-11T04:57:56.626Z,-1.32
2018-01-11T05:00:24.167Z,-1.25
2018-01-11T05:02:51.761Z,-1.29
2018-01-11T05:05:19.253Z,-1.25
2018-01-11T05:07:46.776Z,-0.97
2018-01-11T05:10:14.288Z,-1.08
2018-01-11T05:12:41.827Z,-1.22
2018-01-11T05:15:09.506Z,-1.21
2018-01-11T05:17:37.021Z,-1.23
2018-01-11T05:20:04.537Z,-1.24
2018-01-11T05:22:32.093Z,-1.24
2018-01-11T05:24:59.743Z,-1.17
2018-01-11T05:27:27.457Z,-1.25
2018-01-11T05:29:54.977Z,-1.37
2018-01-11T05:32:22.491Z,-1.39
2018-01-11T05:34:50.023Z,-1.34
2018-01-11T05:37:17.639Z,-1.40
2018-01-11T05:39:45.132Z,-1.32
2018-01-11T05:42:12.653Z,-1.33
2018-01-11T05:44:40.199Z,-1.28
2018-01-11T05:47:07.718Z,-1.34
2018-01-11T05:49:35.221Z,-1.28
2018-01-11T05:52:02.817Z,-1.26
2018-01-11T05:54:30.331Z,-1.43
2018-01-11T05:56:57.867Z,-1.51
2018-01-11T05:59:25.394Z,-1.46
2018-01-11T06:01:52.909Z,-1.44
2018-01-11T06:04:20.456Z,-1.41
2018-01-11T06:06:47.976Z,-1.41
2018-01-11T06:09:15.491Z,-1.39
2018-01-11T06:11:43.016Z,-1.42
2018-01-11T06:14:10.566Z,-1.31
2018-01-11T06:16:38.087Z,-1.24
2018-01-11T06:19:05.738Z,-1.27
2018-01-11T06:21:33.257Z,-1.30
2018-01-11T06:24:00.792Z,-1.00
2018-01-11T06:26:28.323Z,-1.20
2018-01-11T06:28:55.852Z,-1.17
2018-01-11T06:31:23.373Z,-0.92
2018-01-11T06:33:50.922Z,-0.97
2018-01-11T06:36:19.102Z,-1.06
2018-01-11T06:38:46.628Z,-1.09
2018-01-11T06:41:14.167Z,-1.20
2018-01-11T06:43:41.726Z,-1.18
2018-01-11T06:46:09.242Z,-0.95
2018-01-11T06:48:36.761Z,-0.98
2018-01-11T06:51:04.317Z,-0.97
2018-01-11T06:53:31.846Z,-0.89
2018-01-11T06:55:59.378Z,-0.81
2018-01-11T06:58:26.971Z,-0.90
2018-01-11T07:00:54.493Z,-0.91
2018-01-11T07:03:22.057Z,-1.04
2018-01-11T07:05:49.598Z,-1.15
2018-01-11T07:08:17.109Z,-1.11
2018-01-11T07:10:44.642Z,-1.12
2018-01-11T07:13:12.181Z,-1.15
2018-01-11T07:15:39.733Z,-1.04
2018-01-11T07:18:07.292Z,-1.02
2018-01-11T07:20:34.838Z,-1.05
2018-01-11T07:23:02.371Z,-1.04
2018-01-11T07:25:29.917Z,-1.02
2018-01-11T07:27:57.447Z,-1.13
2018-01-11T07:30:25.004Z,-1.21
2018-01-11T07:32:52.548Z,-1.20
2018-01-11T07:35:20.077Z,-1.12
2018-01-11T07:37:47.586Z,-1.08
2018-01-11T07:40:15.112Z,-1.05
2018-01-11T07:42:42.673Z,-0.90
2018-01-11T07:45:10.217Z,-0.96
2018-01-11T07:47:37.881Z,-0.94
2018-01-11T07:50:05.445Z,-0.92
2018-01-11T07:52:32.976Z,-0.93
2018-01-11T07:55:00.487Z,-0.85
2018-01-11T07:57:28.045Z,-0.79
2018-01-11T07:59:55.569Z,-0.84
2018-01-11T08:02:23.100Z,-0.78
2018-01-11T08:04:50.645Z,-0.51
2018-01-11T08:07:18.172Z,-0.37
2018-01-11T08:09:45.712Z,-0.46
2018-01-11T08:12:13.256Z,-0.53
2018-01-11T08:14:40.802Z,-0.53
2018-01-11T08:17:08.366Z,-0.51
2018-01-11T08:19:35.944Z,-0.47
2018-01-11T08:22:03.464Z,-0.43
2018-01-11T08:24:30.993Z,-0.39
2018-01-11T08:26:58.508Z,-0.37
2018-01-11T08:29:26.018Z,-0.30
2018-01-11T08:31:53.543Z,-0.25
2018-01-11T08:34:21.083Z,-0.08
2018-01-11T08:36:48.611Z,0.16
2018-01-11T08:39:16.137Z,0.18
2018-01-11T08:41:43.650Z,0.41
2018-01-11T08:44:11.162Z,0.68
2018-01-11T08:46:38.677Z,0.81
2018-01-11T08:49:06.234Z,1.25
2018-01-11T08:51:33.763Z,1.04
2018-01-11T08:54:01.293Z,0.90
2018-01-11T08:56:28.812Z,1.12
2018-01-11T08:58:56.346Z,1.26
2018-01-11T09:01:23.882Z,1.95
2018-01-11T09:03:51.393Z,2.58
2018-01-11T09:06:18.894Z,2.73
2018-01-11T09:08:46.419Z,2.88
2018-01-11T09:11:13.956Z,3.14
2018-01-11T09:13:41.492Z,3.34
2018-01-11T09:16:09.199Z,3.08
2018-01-11T09:18:36.852Z,3.17
2018-01-11T09:21:04.492Z,3.60
2018-01-11T09:23:32.004Z,3.88
2018-01-11T09:25:59.653Z,3.80
2018-01-11T09:28:27.192Z,3.56
2018-01-11T09:30:54.728Z,3.75
2018-01-11T09:33:22.291Z,3.89
2018-01-11T09:35:49.808Z,4.41
2018-01-11T09:38:17.327Z,4.83
2018-01-11T09:40:44.837Z,4.14
2018-01-11T09:43:12.366Z,3.83
2018-01-11T09:45:40.007Z,3.98
2018-01-11T09:48:07.512Z,4.19
2018-01-11T09:50:35.052Z,4.48
2018-01-11T09:53:02.568Z,4.84
2018-01-11T09:55:30.091Z,5.21
2018-01-11T09:57:57.647Z,5.31
2018-01-11T10:00:25.167Z,5.76
2018-01-11T10:02:52.734Z,6.01
2018-01-11T10:05:20.280Z,6.05
2018-01-11T10:07:47.823Z,6.64
2018-01-11T10:10:15.344Z,6.54
2018-01-11T10:12:42.843Z,6.33
2018-01-11T10:15:10.362Z,6.82
2018-01-11T10:17:37.871Z,7.10
2018-01-11T10:20:05.407Z,7.27
2018-01-11T10:22:32.977Z,7.10
2018-01-11T10:25:00.497Z,7.58
2018-01-11T10:27:28.104Z,7.88
2018-01-11T10:29:55.612Z,7.44
2018-01-11T10:32:23.309Z,7.14
2018-01-11T10:34:50.837Z,6.75
2018-01-11T10:37:18.344Z,6.92
2018-01-11T10:39:45.874Z,6.90
2018-01-11T10:42:13.409Z,6.60
2018-01-11T10:44:40.948Z,6.65
2018-01-11T10:47:08.487Z,6.46
2018-01-11T10:49:36.009Z,5.76
2018-01-11T10:52:03.534Z,6.38
2018-01-11T10:54:31.062Z,7.62
2018-01-11T10:56:58.573Z,8.95
2018-01-11T10:59:26.091Z,9.00
2018-01-11T11:01:59.298Z,8.60
2018-01-11T11:04:26.813Z,8.93
2018-01-11T11:06:54.327Z,9.18
2018-01-11T11:09:21.878Z,9.83
2018-01-11T11:11:49.393Z,10.06
2018-01-11T11:14:16.937Z,9.78
2018-01-11T11:16:44.516Z,9.30
2018-01-11T11:19:12.049Z,9.75
2018-01-11T11:21:39.569Z,10.36
2018-01-11T11:24:07.077Z,10.00
2018-01-11T11:26:34.586Z,11.30
2018-01-11T11:29:02.184Z,11.35
2018-01-11T11:31:29.707Z,11.51
2018-01-11T11:33:57.262Z,12.64
2018-01-11T11:36:24.809Z,13.85
2018-01-11T11:38:52.333Z,14.08
2018-01-11T11:41:19.852Z,13.92
2018-01-11T11:43:47.374Z,13.83
2018-01-11T11:46:15.084Z,14.09
2018-01-11T11:48:42.662Z,14.41
2018-01-11T11:51:10.192Z,15.30
2018-01-11T11:53:37.725Z,16.06
2018-01-11T11:56:05.271Z,17.12
2018-01-11T11:58:32.813Z,17.90
2018-01-11T12:01:00.362Z,19.28
2018-01-11T12:03:27.937Z,19.68
2018-01-11T12:05:55.450Z,17.09
2018-01-11T12:08:22.974Z,16.42
2018-01-11T12:10:50.488Z,15.80
2018-01-11T12:13:18.062Z,16.73
2018-01-11T12:15:45.607Z,16.54
2018-01-11T12:18:13.307Z,16.35
2018-01-11T12:20:40.854Z,16.22
2018-01-11T12:23:08.408Z,15.57
2018-01-11T12:25:35.953Z,15.65
2018-01-11T12:28:03.523Z,12.49
2018-01-11T12:30:31.095Z,11.79
2018-01-11T12:32:58.646Z,11.93
2018-01-11T12:35:26.389Z,11.67
2018-01-11T12:37:53.999Z,11.95
2018-01-11T12:40:21.529Z,12.15
2018-01-11T12:42:49.152Z,11.01
2018-01-11T12:45:16.647Z,11.17
2018-01-11T12:47:44.218Z,11.14
2018-01-11T12:50:11.746Z,11.84
2018-01-11T12:52:39.278Z,12.23
2018-01-11T12:55:06.833Z,12.63
2018-01-11T12:57:34.364Z,13.31
2018-01-11T13:00:02.059Z,12.26
2018-01-11T13:02:29.597Z,11.67
2018-01-11T13:04:57.165Z,12.55
2018-01-11T13:07:24.701Z,13.15
2018-01-11T13:09:52.264Z,13.62
2018-01-11T13:12:19.788Z,14.14
2018-01-11T13:14:47.314Z,13.51
2018-01-11T13:17:14.847Z,13.19
2018-01-11T13:19:42.372Z,13.07
2018-01-11T13:22:09.900Z,12.45
2018-01-11T13:24:37.463Z,12.70
2018-01-11T13:27:04.984Z,12.81
2018-01-11T13:29:32.617Z,12.95
2018-01-11T13:32:00.168Z,13.18
2018-01-11T13:34:27.706Z,12.43
2018-01-11T13:36:55.297Z,12.65
2018-01-11T13:39:22.836Z,12.30
2018-01-11T13:41:50.382Z,12.19
2018-01-11T13:44:17.927Z,11.79
2018-01-11T13:46:45.471Z,11.99
2018-01-11T13:49:13.093Z,11.83
2018-01-11T13:51:40.622Z,11.53
2018-01-11T13:54:08.147Z,11.51
2018-01-11T13:56:35.828Z,11.11
2018-01-11T13:59:03.348Z,10.57
2018-01-11T14:01:30.857Z,9.78
2018-01-11T14:03:58.378Z,9.98
2018-01-11T14:06:25.919Z,9.24
2018-01-11T14:08:53.897Z,9.43
2018-01-11T14:11:21.840Z,9.85
2018-01-11T14:13:49.371Z,9.93
2018-01-11T14:16:16.965Z,9.95
2018-01-11T14:18:44.618Z,10.04
2018-01-11T14:21:12.228Z,9.84
2018-01-11T14:23:39.993Z,9.65
2018-01-11T14:26:07.690Z,9.71
2018-01-11T14:28:35.212Z,9.87
2018-01-11T14:31:02.745Z,9.76
2018-01-11T14:33:30.312Z,9.79
2018-01-11T14:35:57.842Z,9.45
2018-01-11T14:38:25.382Z,9.57
2018-01-11T14:40:52.903Z,9.50
2018-01-11T14:43:20.414Z,9.58
2018-01-11T14:45:48.079Z,9.65
2018-01-11T14:48:15.627Z,9.55
2018-01-11T14:50:43.262Z,9.37
2018-01-11T14:53:10.812Z,9.30
2018-01-11T14:55:38.337Z,9.09
2018-01-11T14:58:05.893Z,9.15
2018-01-11T15:00:33.428Z,9.00
2018-01-11T15:03:00.963Z,9.11
2018-01-11T15:05:28.658Z,8.94
2018-01-11T15:07:56.208Z,8.69
2018-01-11T15:10:23.754Z,8.62
2018-01-11T15:12:51.280Z,8.25
2018-01-11T15:15:18.816Z,8.02
2018-01-11T15:17:46.349Z,7.80
2018-01-11T15:20:13.879Z,7.49
2018-01-11T15:22:41.419Z,7.41
2018-01-11T15:25:08.933Z,7.21
2018-01-11T15:27:36.469Z,7.04
2018-01-11T15:30:03.979Z,6.91
2018-01-11T15:32:31.508Z,6.88
2018-01-11T15:34:59.039Z,6.81
2018-01-11T15:37:26.566Z,6.57
2018-01-11T15:39:54.182Z,6.46
2018-01-11T15:42:21.710Z,6.38
2018-01-11T15:44:49.240Z,6.14
2018-01-11T15:47:16.799Z,6.02
2018-01-11T15:49:44.412Z,5.90
2018-01-11T15:52:12.026Z,5.84
2018-01-11T15:54:39.530Z,5.76
2018-01-11T15:57:07.046Z,5.70
2018-01-11T15:59:34.580Z,5.63
2018-01-11T16:02:02.128Z,5.45
2018-01-11T16:04:30.258Z,5.28
2018-01-11T16:06:57.745Z,5.15
2018-01-11T16:09:25.251Z,5.10
2018-01-11T16:11:52.779Z,5.09
2018-01-11T16:14:20.356Z,5.06
2018-01-11T16:16:47.925Z,5.02
2018-01-11T16:19:15.445Z,5.02
2018-01-11T16:21:42.961Z,5.02
2018-01-11T16:24:10.495Z,5.08
2018-01-11T16:26:38.023Z,5.15
2018-01-11T16:29:05.569Z,5.17
2018-01-11T16:31:33.124Z,5.20
2018-01-11T16:34:00.663Z,5.16
2018-01-11T16:36:28.228Z,5.10
2018-01-11T16:38:55.782Z,5.04
2018-01-11T16:41:23.545Z,5.01
2018-01-11T16:43:51.089Z,4.89
2018-01-11T16:46:18.619Z,4.78
2018-01-11T16:48:46.160Z,4.61
2018-01-11T16:51:13.680Z,4.56
2018-01-11T16:53:41.265Z,4.49
2018-01-11T16:56:08.820Z,4.39
2018-01-11T16:58:36.384Z,4.35
2018-01-11T17:01:03.969Z,4.33
2018-01-11T17:03:31.506Z,4.23
2018-01-11T17:05:59.038Z,4.07
2018-01-11T17:08:26.589Z,4.02
2018-01-11T17:10:54.123Z,3.97
2018-01-11T17:13:21.676Z,4.00
2018-01-11T17:15:49.238Z,3.99
2018-01-11T17:18:16.782Z,3.97
2018-01-11T17:20:44.310Z,4.02
2018-01-11T17:23:11.848Z,4.07
2018-01-11T17:25:39.399Z,4.08
2018-01-11T17:28:06.954Z,4.06
2018-01-11T17:30:34.481Z,4.13
2018-01-11T17:33:02.223Z,3.98
2018-01-11T17:35:29.884Z,3.93
2018-01-11T17:37:57.415Z,3.95
2018-01-11T17:40:24.973Z,4.14
2018-01-11T17:42:52.557Z,4.05
2018-01-11T17:45:20.068Z,3.78
2018-01-11T17:47:47.601Z,3.75
2018-01-11T17:50:15.135Z,3.72
2018-01-11T17:52:42.688Z,3.73
2018-01-11T17:55:10.220Z,3.70
2018-01-11T17:57:37.778Z,3.74
2018-01-11T18:00:05.325Z,3.75
2018-01-11T18:02:32.851Z,3.82
2018-01-11T18:05:00.383Z,3.85
2018-01-11T18:07:27.941Z,3.86
2018-01-11T18:09:55.628Z,3.85
2018-01-11T18:12:23.268Z,3.76
2018-01-11T18:14:50.809Z,3.64
2018-01-11T18:17:18.355Z,3.70
2018-01-11T18:19:45.889Z,3.69
2018-01-11T18:42:55.611Z,3.38
2018-01-11T18:45:23.279Z,3.50
2018-01-11T18:47:54.310Z,3.46
2018-01-11T18:50:35.039Z,3.27
2018-01-11T18:53:02.777Z,3.40
2018-01-11T18:55:30.464Z,3.51
2018-01-11T19:01:27.027Z,3.23
2018-01-11T19:03:54.708Z,3.16
2018-01-11T19:06:22.395Z,3.13
2018-01-11T19:08:50.315Z,3.09
2018-01-11T19:11:17.981Z,3.11
2018-01-11T19:16:59.010Z,3.23
2018-01-11T19:19:26.644Z,3.10
2018-01-11T19:21:54.302Z,3.12
2018-01-11T19:24:22.027Z,3.16
2018-01-11T19:26:49.705Z,3.02
2018-01-11T19:29:17.480Z,2.96
2018-01-11T19:31:45.134Z,2.94
2018-01-11T19:34:21.564Z,2.86
2018-01-11T19:36:49.431Z,2.85
2018-01-11T19:39:17.066Z,2.84
2018-01-11T19:41:44.845Z,2.75
2018-01-11T19:44:12.539Z,2.74
2018-01-11T19:46:40.251Z,2.60
2018-01-11T19:49:08.100Z,2.54
2018-01-11T19:51:35.780Z,2.43
2018-01-11T19:54:03.466Z,2.37
2018-01-11T19:56:31.049Z,2.33
2018-01-11T19:58:58.978Z,2.27
2018-01-11T20:01:26.746Z,2.29
2018-01-11T20:03:54.399Z,2.17
2018-01-11T20:06:22.059Z,2.20
2018-01-11T20:08:49.730Z,2.30
2018-01-11T20:11:17.424Z,2.17
2018-01-11T20:13:45.141Z,2.08
2018-01-11T20:16:12.899Z,2.16
2018-01-11T20:18:40.579Z,2.26
2018-01-11T20:21:08.314Z,2.22
2018-01-11T20:23:36.034Z,2.29
2018-01-11T20:26:03.681Z,2.50
2018-01-11T20:28:31.288Z,2.46
2018-01-11T20:30:58.958Z,2.58
2018-01-11T20:33:26.720Z,2.52
2018-01-11T20:35:54.700Z,2.74
2018-01-11T20:38:22.338Z,2.73
2018-01-11T20:40:50.221Z,2.76
2018-01-11T20:43:18.029Z,2.77
2018-01-11T20:45:45.680Z,2.75
2018-01-11T20:48:13.388Z,2.89
2018-01-11T20:50:41.325Z,2.88
2018-01-11T20:53:08.999Z,2.86
2018-01-11T20:55:36.719Z,2.85
2018-01-11T20:58:04.465Z,2.97
2018-01-11T21:00:32.255Z,3.00
2018-01-11T21:03:00.042Z,3.00
2018-01-11T21:05:27.690Z,3.28
2018-01-11T21:07:55.400Z,3.26
2018-01-11T21:10:23.280Z,3.40
2018-01-11T21:12:50.926Z,3.34
2018-01-11T21:15:18.731Z,3.25
2018-01-11T21:17:46.390Z,3.09
2018-01-11T21:20:14.149Z,3.00
2018-01-11T21:22:41.864Z,3.06
2018-01-11T21:25:09.566Z,3.01
2018-01-11T21:27:37.210Z,3.00
2018-01-11T21:30:04.860Z,3.02
2018-01-11T21:32:32.531Z,3.08
2018-01-11T21:35:00.175Z,3.16
2018-01-11T21:37:27.855Z,3.25
2018-01-11T21:39:55.633Z,3.04
2018-01-11T21:42:23.430Z,3.12
2018-01-11T21:44:51.094Z,3.00
2018-01-11T21:47:18.869Z,2.98
2018-01-11T21:49:46.608Z,2.93
2018-01-11T21:52:15.215Z,3.04
2018-01-11T21:54:42.950Z,2.99
2018-01-11T21:57:10.648Z,3.00
2018-01-11T21:59:38.289Z,3.06
2018-01-11T22:02:05.945Z,3.08
2018-01-11T22:04:33.603Z,3.14
2018-01-11T22:07:01.261Z,3.09
2018-01-11T22:09:29.018Z,3.23
2018-01-11T22:11:56.678Z,3.18
2018-01-11T22:14:24.585Z,3.19
2018-01-11T22:16:52.394Z,3.24
2018-01-11T22:19:20.137Z,3.25
2018-01-11T22:21:47.805Z,3.16
2018-01-11T22:24:15.490Z,3.18
2018-01-11T22:26:43.148Z,3.13
2018-01-11T22:29:10.754Z,3.20
2018-01-11T22:31:38.396Z,3.32
2018-01-11T22:34:06.063Z,3.13
2018-01-11T22:36:33.750Z,3.22
2018-01-11T22:39:01.444Z,3.41
2018-01-11T22:41:29.095Z,3.32
2018-01-11T22:43:56.745Z,3.25
2018-01-11T22:46:24.429Z,3.23
2018-01-11T22:48:52.064Z,3.49
2018-01-11T22:51:19.701Z,3.30
2018-01-11T22:53:47.680Z,3.31
2018-01-11T22:56:15.324Z,3.27
2018-01-11T22:58:43.139Z,3.39
2018-01-11T23:01:10.819Z,3.38
2018-01-11T23:03:38.484Z,3.33
2018-01-11T23:06:06.145Z,3.25
2018-01-11T23:08:33.814Z,3.18
2018-01-11T23:11:01.575Z,3.18
2018-01-11T23:13:29.201Z,3.15
2018-01-11T23:15:56.875Z,3.38
2018-01-11T23:18:24.519Z,3.57
2018-01-11T23:20:52.155Z,3.54
2018-01-11T23:23:19.868Z,3.43
2018-01-11T23:25:47.529Z,3.43
2018-01-11T23:28:15.205Z,3.24
2018-01-11T23:30:43.073Z,3.15
2018-01-11T23:33:10.698Z,3.26
2018-01-11T23:35:38.320Z,3.36
2018-01-11T23:38:06.210Z,3.36
2018-01-11T23:40:33.858Z,3.50
2018-01-11T23:43:01.504Z,3.34
2018-01-11T23:45:29.275Z,3.30
2018-01-11T23:47:56.950Z,3.29
2018-01-11T23:50:24.703Z,3.38
2018-01-11T23:52:52.438Z,3.67
2018-01-11T23:55:23.428Z,3.59
